createdAt,value
2018-06-10T00:02:25.369Z,25.40
2018-06-10T00:04:53.815Z,25.40
2018-06-10T00:09:51.605Z,25.40
2018-06-10T00:12:20.507Z,25.40
2018-06-10T00:14:48.937Z,25.40
2018-06-10T00:17:17.371Z,25.40
2018-06-10T00:19:45.801Z,25.40
2018-06-10T00:22:14.365Z,25.40
2018-06-10T00:24:42.800Z,25.40
2018-06-10T00:27:11.247Z,25.40
2018-06-10T00:29:39.803Z,25.40
2018-06-10T00:32:08.238Z,25.40
2018-06-10T00:34:36.674Z,25.40
2018-06-10T00:37:05.120Z,25.40
2018-06-10T00:39:33.553Z,25.40
2018-06-10T00:42:02.066Z,25.40
2018-06-10T00:44:30.501Z,25.40
2018-06-10T00:46:58.955Z,25.30
2018-06-10T00:49:27.390Z,25.40
2018-06-10T00:51:55.837Z,25.40
2018-06-10T00:54:24.341Z,25.40
2018-06-10T00:56:53.665Z,25.40
2018-06-10T00:59:23.051Z,25.40
2018-06-10T01:01:52.953Z,25.40
2018-06-10T01:04:22.585Z,25.40
2018-06-10T01:06:52.153Z,25.40
2018-06-10T01:09:21.295Z,25.40
2018-06-10T01:11:50.534Z,25.40
2018-06-10T01:14:18.943Z,25.40
2018-06-10T01:16:47.382Z,25.40
2018-06-10T01:19:15.861Z,25.40
2018-06-10T01:21:44.270Z,25.30
2018-06-10T01:24:12.842Z,25.30
2018-06-10T01:26:46.670Z,25.30
2018-06-10T01:29:15.098Z,25.30
2018-06-10T01:31:43.531Z,25.30
2018-06-10T01:34:12.025Z,25.30
2018-06-10T01:36:40.441Z,25.30
2018-06-10T01:39:08.857Z,25.30
2018-06-10T01:44:05.527Z,25.30
2018-06-10T01:46:33.963Z,25.30
2018-06-10T01:49:02.405Z,25.30
2018-06-10T01:51:30.816Z,25.30
2018-06-10T01:53:59.250Z,25.30
2018-06-10T01:56:27.711Z,25.30
2018-06-10T01:58:56.209Z,25.30
2018-06-10T02:01:24.627Z,25.30
2018-06-10T02:03:53.071Z,25.30
2018-06-10T02:06:22.481Z,25.30
2018-06-10T02:08:51.343Z,25.30
2018-06-10T02:11:20.460Z,25.30
2018-06-10T02:13:48.886Z,25.30
2018-06-10T02:16:17.432Z,25.30
2018-06-10T02:18:45.869Z,25.30
2018-06-10T02:21:14.291Z,25.30
2018-06-10T02:23:42.719Z,25.30
2018-06-10T02:26:11.154Z,25.30
2018-06-10T02:28:39.582Z,25.30
2018-06-10T02:31:08.018Z,25.30
2018-06-10T02:33:36.493Z,25.30
2018-06-10T02:36:04.888Z,25.30
2018-06-10T02:38:33.340Z,25.30
2018-06-10T02:41:01.755Z,25.30
2018-06-10T02:43:30.183Z,25.30
2018-06-10T02:45:58.730Z,25.30
2018-06-10T02:48:27.162Z,25.30
2018-06-10T02:50:55.681Z,25.30
2018-06-10T02:53:24.100Z,25.30
2018-06-10T02:55:52.615Z,25.30
2018-06-10T02:58:22.173Z,25.30
2018-06-10T03:00:51.401Z,25.20
2018-06-10T03:03:21.526Z,25.30
2018-06-10T03:05:50.452Z,25.30
2018-06-10T03:08:18.979Z,25.30
2018-06-10T03:10:47.391Z,25.30
2018-06-10T03:13:15.806Z,25.30
2018-06-10T03:15:44.218Z,25.30
2018-06-10T03:18:12.628Z,25.20
2018-06-10T03:20:41.039Z,25.20
2018-06-10T03:23:09.456Z,25.30
2018-06-10T03:25:37.858Z,25.30
2018-06-10T03:28:06.274Z,25.20
2018-06-10T03:30:34.684Z,25.20
2018-06-10T03:33:03.095Z,25.30
2018-06-10T03:35:31.504Z,25.20
2018-06-10T03:37:59.974Z,25.20
2018-06-10T03:40:28.427Z,25.20
2018-06-10T03:42:57.176Z,25.20
2018-06-10T03:45:25.588Z,25.20
2018-06-10T03:47:54.121Z,25.20
2018-06-10T03:50:22.862Z,25.20
2018-06-10T03:52:51.360Z,25.20
2018-06-10T03:55:20.508Z,25.20
2018-06-10T03:57:48.926Z,25.20
2018-06-10T04:00:17.354Z,25.20
2018-06-10T04:02:45.762Z,25.20
2018-06-10T04:05:14.186Z,25.20
2018-06-10T04:07:42.606Z,25.20
2018-06-10T04:10:11.295Z,25.20
2018-06-10T04:12:39.706Z,25.20
2018-06-10T04:15:08.180Z,25.20
2018-06-10T04:17:36.656Z,25.20
2018-06-10T04:20:05.089Z,25.20
2018-06-10T04:22:33.581Z,25.20
2018-06-10T04:25:02.066Z,25.20
2018-06-10T04:27:30.510Z,25.20
2018-06-10T04:29:59.093Z,25.20
2018-06-10T04:32:27.525Z,25.20
2018-06-10T04:34:55.942Z,25.20
2018-06-10T04:37:24.494Z,25.20
2018-06-10T04:39:52.922Z,25.20
2018-06-10T04:42:22.834Z,25.20
2018-06-10T04:44:51.314Z,25.20
2018-06-10T04:47:20.378Z,25.20
2018-06-10T04:49:48.862Z,25.20
2018-06-10T04:52:17.281Z,25.20
2018-06-10T04:54:45.709Z,25.20
2018-06-10T04:57:14.148Z,25.20
2018-06-10T04:59:42.558Z,25.20
2018-06-10T05:02:11.185Z,25.20
2018-06-10T05:04:39.645Z,25.20
2018-06-10T05:07:08.077Z,25.20
2018-06-10T05:09:36.497Z,25.20
2018-06-10T05:12:04.918Z,25.20
2018-06-10T05:14:33.370Z,25.20
2018-06-10T05:19:29.925Z,25.20
2018-06-10T05:21:58.385Z,25.20
2018-06-10T05:24:26.803Z,25.20
2018-06-10T05:26:55.209Z,25.20
2018-06-10T05:29:23.629Z,25.20
2018-06-10T05:31:52.807Z,25.20
2018-06-10T05:34:21.266Z,25.20
2018-06-10T05:36:50.538Z,25.20
2018-06-10T05:39:18.945Z,25.20
2018-06-10T05:41:47.399Z,25.20
2018-06-10T05:44:15.807Z,25.20
2018-06-10T05:46:44.224Z,25.20
2018-06-10T05:49:12.635Z,25.20
2018-06-10T05:51:41.269Z,25.20
2018-06-10T05:54:09.689Z,25.20
2018-06-10T05:56:38.113Z,25.20
2018-06-10T05:59:06.779Z,25.20
2018-06-10T06:01:35.196Z,25.20
2018-06-10T06:04:03.622Z,25.20
2018-06-10T06:06:32.038Z,25.20
2018-06-10T06:09:00.489Z,25.20
2018-06-10T06:11:28.940Z,25.20
2018-06-10T06:13:58.011Z,25.20
2018-06-10T06:16:26.602Z,25.20
2018-06-10T06:18:55.796Z,25.20
2018-06-10T06:21:24.227Z,25.20
2018-06-10T06:26:21.285Z,25.20
2018-06-10T06:28:50.616Z,25.20
2018-06-10T06:31:19.103Z,25.20
2018-06-10T06:33:48.405Z,25.20
2018-06-10T06:36:17.166Z,25.20
2018-06-10T06:38:45.784Z,25.20
2018-06-10T06:41:14.232Z,25.30
2018-06-10T06:43:42.671Z,25.30
2018-06-10T06:46:11.161Z,25.30
2018-06-10T06:48:39.788Z,25.30
2018-06-10T06:51:08.526Z,25.30
2018-06-10T06:53:37.182Z,25.30
2018-06-10T06:56:05.681Z,25.30
2018-06-10T06:58:35.367Z,25.30
2018-06-10T07:01:04.365Z,25.30
2018-06-10T07:03:32.781Z,25.30
2018-06-10T07:06:01.199Z,25.30
2018-06-10T07:08:29.624Z,25.30
2018-06-10T07:10:58.144Z,25.30
2018-06-10T07:13:26.856Z,25.30
2018-06-10T07:15:56.150Z,25.30
2018-06-10T07:18:24.961Z,25.30
2018-06-10T07:20:53.504Z,25.30
2018-06-10T07:23:24.014Z,25.30
2018-06-10T07:25:57.614Z,25.30
2018-06-10T07:28:26.237Z,25.40
2018-06-10T07:30:54.692Z,25.40
2018-06-10T07:33:23.140Z,25.40
2018-06-10T07:35:51.780Z,25.40
2018-06-10T07:38:20.545Z,25.40
2018-06-10T07:40:49.053Z,25.40
2018-06-10T07:43:17.481Z,25.40
2018-06-10T07:45:46.779Z,25.40
2018-06-10T07:48:15.415Z,25.40
2018-06-10T07:50:43.910Z,25.40
2018-06-10T07:53:12.355Z,25.40
2018-06-10T07:55:41.148Z,25.50
2018-06-10T07:58:10.093Z,25.40
2018-06-10T08:00:38.530Z,25.50
2018-06-10T08:03:07.095Z,25.50
2018-06-10T08:05:37.723Z,25.50
2018-06-10T08:08:08.715Z,25.50
2018-06-10T08:10:37.459Z,25.50
2018-06-10T08:13:07.409Z,25.50
2018-06-10T08:15:37.113Z,25.50
2018-06-10T08:18:06.821Z,25.50
2018-06-10T08:20:36.767Z,25.60
2018-06-10T08:23:05.942Z,25.60
2018-06-10T08:25:35.501Z,25.60
2018-06-10T08:28:06.097Z,25.60
2018-06-10T08:30:36.745Z,25.60
2018-06-10T08:33:05.560Z,25.60
2018-06-10T08:35:35.270Z,25.60
2018-06-10T08:38:04.466Z,25.60
2018-06-10T08:40:33.200Z,25.60
2018-06-10T08:43:03.473Z,25.70
2018-06-10T08:48:04.466Z,25.70
2018-06-10T08:50:33.163Z,25.70
2018-06-10T08:53:01.935Z,25.70
2018-06-10T08:55:30.511Z,25.80
2018-06-10T08:57:58.968Z,25.80
2018-06-10T09:00:27.540Z,25.80
2018-06-10T09:05:24.428Z,25.80
2018-06-10T09:07:52.849Z,25.80
2018-06-10T09:10:21.273Z,25.80
2018-06-10T09:12:49.691Z,25.80
2018-06-10T09:15:18.287Z,25.90
2018-06-10T09:17:46.713Z,25.90
2018-06-10T09:20:15.133Z,25.90
2018-06-10T09:22:43.754Z,25.90
2018-06-10T09:25:12.373Z,25.90
2018-06-10T09:27:41.154Z,25.90
2018-06-10T09:30:10.261Z,25.90
2018-06-10T09:32:46.243Z,25.90
2018-06-10T09:35:14.686Z,26.00
2018-06-10T09:37:43.182Z,26.00
2018-06-10T09:40:11.642Z,26.00
2018-06-10T09:42:41.375Z,26.00
2018-06-10T09:45:09.788Z,26.00
2018-06-10T09:47:38.273Z,26.00
2018-06-10T09:50:08.860Z,26.00
2018-06-10T09:52:37.316Z,26.10
2018-06-10T09:55:07.013Z,26.10
2018-06-10T09:57:37.357Z,26.10
2018-06-10T10:00:07.408Z,26.10
2018-06-10T10:02:36.810Z,26.10
2018-06-10T10:05:06.504Z,26.10
2018-06-10T10:07:37.648Z,26.10
2018-06-10T10:12:35.930Z,26.20
2018-06-10T10:15:06.551Z,26.20
2018-06-10T10:17:36.509Z,26.20
2018-06-10T10:20:05.842Z,26.20
2018-06-10T10:22:35.636Z,26.20
2018-06-10T10:25:05.333Z,26.20
2018-06-10T10:27:34.373Z,26.20
2018-06-10T10:30:02.835Z,26.20
2018-06-10T10:32:31.289Z,26.20
2018-06-10T10:37:28.138Z,26.30
2018-06-10T10:39:56.656Z,26.30
2018-06-10T10:42:25.178Z,26.30
2018-06-10T10:44:53.593Z,26.30
2018-06-10T10:47:22.066Z,26.30
2018-06-10T10:49:50.607Z,26.30
2018-06-10T10:52:19.325Z,26.30
2018-06-10T10:54:48.013Z,26.30
2018-06-10T10:57:16.657Z,26.40
2018-06-10T10:59:45.100Z,26.40
2018-06-10T11:02:13.612Z,26.40
2018-06-10T11:04:42.149Z,26.40
2018-06-10T11:07:10.947Z,26.40
2018-06-10T11:09:39.451Z,26.40
2018-06-10T11:12:07.935Z,26.40
2018-06-10T11:14:37.378Z,26.40
2018-06-10T11:17:05.976Z,26.40
2018-06-10T11:19:35.343Z,26.40
2018-06-10T11:22:03.929Z,26.40
2018-06-10T11:24:32.847Z,26.40
2018-06-10T11:27:03.491Z,26.50
2018-06-10T11:29:31.895Z,26.50
2018-06-10T11:32:00.538Z,26.50
2018-06-10T11:34:34.431Z,26.50
2018-06-10T11:37:02.862Z,26.50
2018-06-10T11:39:31.421Z,26.50
2018-06-10T11:42:00.011Z,26.50
2018-06-10T11:44:28.515Z,26.50
2018-06-10T11:46:57.175Z,26.50
2018-06-10T11:49:25.667Z,26.50
2018-06-10T11:51:54.266Z,26.50
2018-06-10T11:54:22.878Z,26.60
2018-06-10T11:56:51.318Z,26.60
2018-06-10T11:59:23.216Z,26.60
2018-06-10T12:01:52.075Z,26.60
2018-06-10T12:04:20.609Z,26.60
2018-06-10T12:06:49.815Z,26.60
2018-06-10T12:11:46.545Z,26.60
2018-06-10T12:14:14.993Z,26.60
2018-06-10T12:16:43.472Z,26.60
2018-06-10T12:19:11.899Z,26.60
2018-06-10T12:21:40.533Z,26.60
2018-06-10T12:24:09.017Z,26.60
2018-06-10T12:26:38.175Z,26.70
2018-06-10T12:29:07.911Z,26.60
2018-06-10T12:31:36.480Z,26.60
2018-06-10T12:34:05.658Z,26.60
2018-06-10T12:36:34.983Z,26.60
2018-06-10T12:39:06.486Z,26.60
2018-06-10T12:41:35.996Z,26.70
2018-06-10T12:44:05.850Z,26.60
2018-06-10T12:46:35.251Z,26.60
2018-06-10T12:51:31.841Z,26.60
2018-06-10T12:54:00.257Z,26.70
2018-06-10T12:56:28.677Z,26.60
2018-06-10T13:01:25.317Z,26.60
2018-06-10T13:03:53.959Z,26.60
2018-06-10T13:06:22.378Z,26.60
2018-06-10T13:08:50.800Z,26.60
2018-06-10T13:11:19.298Z,26.60
2018-06-10T13:13:48.546Z,26.60
2018-06-10T13:16:16.967Z,26.60
2018-06-10T13:18:45.458Z,26.60
2018-06-10T13:21:14.058Z,26.60
2018-06-10T13:23:42.631Z,26.60
2018-06-10T13:26:11.066Z,26.60
2018-06-10T13:28:39.511Z,26.60
2018-06-10T13:31:07.939Z,26.60
2018-06-10T13:33:37.520Z,26.60
2018-06-10T13:36:07.049Z,26.60
2018-06-10T13:38:36.427Z,26.60
2018-06-10T13:41:05.547Z,26.60
2018-06-10T13:43:34.455Z,26.60
2018-06-10T13:46:03.094Z,26.60
2018-06-10T13:48:31.650Z,26.60
2018-06-10T13:51:00.292Z,26.60
2018-06-10T13:53:28.921Z,26.50
2018-06-10T13:55:57.380Z,26.50
2018-06-10T13:58:25.820Z,26.60
2018-06-10T14:00:54.240Z,26.50
2018-06-10T14:03:22.668Z,26.60
2018-06-10T14:05:51.192Z,26.50
2018-06-10T14:08:19.648Z,26.50
2018-06-10T14:10:48.184Z,26.50
2018-06-10T14:13:16.997Z,26.50
2018-06-10T14:15:45.451Z,26.60
2018-06-10T14:18:13.897Z,26.50
2018-06-10T14:20:42.559Z,26.60
2018-06-10T14:23:11.040Z,26.60
2018-06-10T14:25:39.598Z,26.60
2018-06-10T14:28:08.068Z,26.60
2018-06-10T14:30:36.603Z,26.60
2018-06-10T14:33:05.977Z,26.60
2018-06-10T14:35:35.451Z,26.60
2018-06-10T14:38:04.747Z,26.60
2018-06-10T14:40:33.205Z,26.60
2018-06-10T14:43:01.634Z,26.60
2018-06-10T14:45:31.398Z,26.60
2018-06-10T14:48:00.321Z,26.60
2018-06-10T14:50:28.773Z,26.60
2018-06-10T14:52:57.385Z,26.60
2018-06-10T14:55:25.984Z,26.60
2018-06-10T14:57:54.583Z,26.60
2018-06-10T15:00:23.093Z,26.60
2018-06-10T15:02:52.004Z,26.60
2018-06-10T15:05:20.431Z,26.60
2018-06-10T15:07:49.030Z,26.60
2018-06-10T15:10:17.595Z,26.60
2018-06-10T15:12:46.040Z,26.60
2018-06-10T15:15:14.745Z,26.60
2018-06-10T15:17:44.163Z,26.60
2018-06-10T15:20:12.948Z,26.60
2018-06-10T15:22:41.518Z,26.60
2018-06-10T15:25:10.117Z,26.60
2018-06-10T15:27:38.880Z,26.60
2018-06-10T15:30:07.469Z,26.60
2018-06-10T15:32:37.151Z,26.60
2018-06-10T15:35:06.748Z,26.60
2018-06-10T15:37:35.233Z,26.60
2018-06-10T15:40:04.392Z,26.60
2018-06-10T15:42:33.165Z,26.60
2018-06-10T15:45:02.025Z,26.60
2018-06-10T15:47:30.517Z,26.60
2018-06-10T15:49:59.192Z,26.60
2018-06-10T15:52:27.747Z,26.60
2018-06-10T15:54:56.454Z,26.60
2018-06-10T15:57:24.879Z,26.60
2018-06-10T15:59:53.477Z,26.60
2018-06-10T16:02:21.895Z,26.60
2018-06-10T16:04:50.351Z,26.60
2018-06-10T16:07:18.867Z,26.60
2018-06-10T16:09:47.304Z,26.60
2018-06-10T16:12:16.934Z,26.60
2018-06-10T16:14:45.590Z,26.60
2018-06-10T16:17:14.225Z,26.60
2018-06-10T16:19:42.888Z,26.60
2018-06-10T16:22:11.338Z,26.60
2018-06-10T16:24:39.824Z,26.60
2018-06-10T16:29:37.428Z,26.60
2018-06-10T16:32:05.942Z,26.60
2018-06-10T16:34:34.468Z,26.60
2018-06-10T16:37:04.287Z,26.60
2018-06-10T16:39:32.897Z,26.50
2018-06-10T16:42:01.563Z,26.60
2018-06-10T16:44:30.257Z,26.50
2018-06-10T16:46:58.689Z,26.50
2018-06-10T16:49:27.169Z,26.50
2018-06-10T16:51:55.601Z,26.50
2018-06-10T16:54:24.767Z,26.50
2018-06-10T16:56:54.000Z,26.50
2018-06-10T16:59:23.393Z,26.50
2018-06-10T17:01:52.664Z,26.50
2018-06-10T17:04:21.912Z,26.50
2018-06-10T17:06:51.041Z,26.50
2018-06-10T17:09:20.067Z,26.50
2018-06-10T17:11:49.412Z,26.40
2018-06-10T17:14:18.436Z,26.40
2018-06-10T17:16:47.433Z,26.40
2018-06-10T17:19:16.692Z,26.40
2018-06-10T17:21:46.054Z,26.40
2018-06-10T17:24:15.355Z,26.40
2018-06-10T17:26:44.410Z,26.40
2018-06-10T17:29:13.610Z,26.40
2018-06-10T17:31:42.668Z,26.40
2018-06-10T17:34:12.296Z,26.40
2018-06-10T17:36:41.516Z,26.40
2018-06-10T17:39:10.678Z,26.40
2018-06-10T17:41:39.807Z,26.40
2018-06-10T17:44:08.596Z,26.30
2018-06-10T17:46:37.771Z,26.30
2018-06-10T17:49:07.894Z,26.30
2018-06-10T17:51:38.101Z,26.30
2018-06-10T17:54:07.807Z,26.30
2018-06-10T17:56:38.393Z,26.30
2018-06-10T17:59:07.097Z,26.30
2018-06-10T18:01:36.705Z,26.30
2018-06-10T18:04:06.394Z,26.30
2018-06-10T18:06:35.240Z,26.30
2018-06-10T18:09:06.988Z,26.30
2018-06-10T18:11:36.825Z,26.30
2018-06-10T18:14:06.987Z,26.30
2018-06-10T18:16:36.191Z,26.30
2018-06-10T18:19:06.130Z,26.30
2018-06-10T18:21:35.236Z,26.30
2018-06-10T18:24:04.458Z,26.30
2018-06-10T18:26:33.046Z,26.20
2018-06-10T18:29:02.191Z,26.20
2018-06-10T18:31:30.649Z,26.20
2018-06-10T18:33:59.779Z,26.20
2018-06-10T18:36:28.363Z,26.20
2018-06-10T18:38:56.994Z,26.20
2018-06-10T18:41:25.621Z,26.20
2018-06-10T18:43:54.569Z,26.20
2018-06-10T18:46:23.369Z,26.20
2018-06-10T18:48:51.785Z,26.20
2018-06-10T18:51:20.407Z,26.20
2018-06-10T18:53:49.980Z,26.20
2018-06-10T18:56:18.439Z,26.20
2018-06-10T18:58:46.905Z,26.20
2018-06-10T19:01:15.607Z,26.20
2018-06-10T19:03:44.063Z,26.10
2018-06-10T19:06:12.496Z,26.10
2018-06-10T19:08:40.948Z,26.10
2018-06-10T19:11:09.374Z,26.10
2018-06-10T19:13:37.798Z,26.10
2018-06-10T19:16:07.271Z,26.10
2018-06-10T19:18:36.755Z,26.10
2018-06-10T19:21:06.563Z,26.10
2018-06-10T19:23:36.305Z,26.10
2018-06-10T19:26:05.597Z,26.10
2018-06-10T19:28:34.575Z,26.10
2018-06-10T19:31:03.021Z,26.10
2018-06-10T19:33:31.480Z,26.00
2018-06-10T19:35:59.922Z,26.00
2018-06-10T19:38:28.329Z,26.10
2018-06-10T19:40:57.064Z,26.00
2018-06-10T19:43:25.779Z,26.00
2018-06-10T19:45:55.047Z,26.00
2018-06-10T19:48:23.826Z,26.00
2018-06-10T19:50:52.407Z,26.00
2018-06-10T19:53:20.895Z,26.00
2018-06-10T19:55:49.307Z,26.00
2018-06-10T19:58:17.750Z,26.00
2018-06-10T20:00:46.164Z,26.00
2018-06-10T20:03:14.576Z,26.00
2018-06-10T20:05:42.996Z,26.00
2018-06-10T20:08:11.416Z,26.00
2018-06-10T20:10:39.949Z,26.00
2018-06-10T20:13:08.505Z,26.00
2018-06-10T20:15:36.921Z,26.00
2018-06-10T20:18:06.182Z,26.00
2018-06-10T20:20:35.197Z,26.00
2018-06-10T20:23:04.319Z,26.00
2018-06-10T20:25:32.891Z,26.00
2018-06-10T20:28:01.296Z,26.00
2018-06-10T20:30:30.057Z,26.00
2018-06-10T20:32:58.599Z,26.00
2018-06-10T20:35:26.983Z,25.90
2018-06-10T20:37:55.386Z,25.90
2018-06-10T20:40:23.796Z,25.90
2018-06-10T20:42:52.229Z,25.90
2018-06-10T20:45:21.411Z,25.90
2018-06-10T20:47:49.824Z,25.90
2018-06-10T20:50:18.276Z,25.90
2018-06-10T20:52:46.685Z,25.90
2018-06-10T20:55:15.113Z,25.90
2018-06-10T20:57:43.599Z,25.90
2018-06-10T21:00:12.064Z,25.90
2018-06-10T21:02:40.533Z,25.90
2018-06-10T21:05:08.981Z,25.90
2018-06-10T21:07:37.394Z,25.90
2018-06-10T21:10:05.935Z,25.90
2018-06-10T21:12:35.193Z,25.90
2018-06-10T21:15:03.882Z,25.90
2018-06-10T21:17:32.402Z,25.90
2018-06-10T21:20:00.937Z,25.90
2018-06-10T21:22:29.387Z,25.90
2018-06-10T21:24:57.794Z,25.80
2018-06-10T21:27:26.207Z,25.90
2018-06-10T21:29:54.631Z,25.80
2018-06-10T21:32:23.031Z,25.80
2018-06-10T21:34:51.430Z,25.80
2018-06-10T21:37:20.704Z,25.80
2018-06-10T21:39:49.100Z,25.80
2018-06-10T21:42:17.533Z,25.80
2018-06-10T21:44:45.948Z,25.80
2018-06-10T21:47:14.424Z,25.80
2018-06-10T21:49:42.822Z,25.80
2018-06-10T21:52:11.230Z,25.80
2018-06-10T21:54:39.629Z,25.80
2018-06-10T21:57:08.062Z,25.80
2018-06-10T21:59:37.313Z,25.80
2018-06-10T22:02:06.002Z,25.80
2018-06-10T22:04:35.074Z,25.80
2018-06-10T22:07:03.495Z,25.80
2018-06-10T22:09:31.914Z,25.80
2018-06-10T22:14:28.629Z,25.80
2018-06-10T22:16:57.046Z,25.80
2018-06-10T22:19:25.471Z,25.80
2018-06-10T22:21:53.881Z,25.80
2018-06-10T22:24:22.285Z,25.80
2018-06-10T22:26:50.761Z,25.80
2018-06-10T22:29:19.169Z,25.80
2018-06-10T22:31:47.609Z,25.80
2018-06-10T22:34:16.007Z,25.80
2018-06-10T22:39:12.583Z,25.80
2018-06-10T22:41:40.998Z,25.80
2018-06-10T22:44:09.408Z,25.70
2018-06-10T22:46:37.837Z,25.70
2018-06-10T22:49:07.201Z,25.80
2018-06-10T22:51:36.682Z,25.80
2018-06-10T22:54:16.667Z,25.70
2018-06-10T22:56:45.076Z,25.70
2018-06-10T22:59:13.519Z,25.70
2018-06-10T23:01:41.940Z,25.70
2018-06-10T23:04:10.339Z,25.70
2018-06-10T23:06:38.758Z,25.70
2018-06-10T23:09:07.697Z,25.70
2018-06-10T23:11:37.012Z,25.70
2018-06-10T23:14:06.813Z,25.70
2018-06-10T23:16:36.838Z,25.70
2018-06-10T23:19:06.086Z,25.70
2018-06-10T23:21:35.478Z,25.70
2018-06-10T23:25:08.081Z,25.70
2018-06-10T23:27:37.275Z,25.70
2018-06-10T23:30:05.940Z,25.70
2018-06-10T23:32:34.466Z,25.70
2018-06-10T23:35:02.885Z,25.70
2018-06-10T23:37:31.298Z,25.70
2018-06-10T23:39:59.740Z,25.70
2018-06-10T23:42:28.137Z,25.60
2018-06-10T23:44:56.540Z,25.60
2018-06-10T23:47:25.159Z,25.60
2018-06-10T23:49:53.572Z,25.60
2018-06-10T23:52:21.973Z,25.60
2018-06-10T23:54:50.391Z,25.60
2018-06-10T23:59:46.940Z,25.60
